ADDS METAR Data INFO
IDs: Format: Raw Decoded Include TAF

Data at: 0851 UTC 22 Jul 2018

METAR for:K3I2 (Point Pleasant/Mason, WV, US)
Text:K3I2 220835Z AUTO 00000KT 10SM BKN031 BKN036 BKN043 20/19 A2970 RMK AO2 T01950192
Temperature: 19.5°C ( 67°F)
Dewpoint: 19.2°C ( 67°F) [RH = 98%]
Pressure (altimeter):29.70 inches Hg (1005.8 mb)
Winds:calm
Visibility:10 or more sm (16+ km)
Ceiling:3100 feet AGL
Clouds: broken clouds at 3100 feet AGL, broken clouds at 3600 feet AGL, broken clouds at 4300 feet AGL
QC Flag:automated observation with no human augmentation
Text:K3I2 220755Z AUTO 00000KT 10SM SCT060 20/19 A2970 RMK AO2 T02010192
Temperature: 20.1°C ( 68°F)
Dewpoint: 19.2°C ( 67°F) [RH = 95%]
Pressure (altimeter):29.70 inches Hg (1005.8 mb)
Winds:calm
Visibility:10 or more sm (16+ km)
Ceiling:at least 12,000 feet AGL
Clouds: scattered clouds at 6000 feet AGL
QC Flag:automated observation with no human augmentation
Text:K3I2 220735Z AUTO 00000KT 10SM SCT060 20/19 A2971 RMK AO2 T02010194
Temperature: 20.1°C ( 68°F)
Dewpoint: 19.4°C ( 67°F) [RH = 96%]
Pressure (altimeter):29.71 inches Hg (1006.2 mb)
Winds:calm
Visibility:10 or more sm (16+ km)
Ceiling:at least 12,000 feet AGL
Clouds: scattered clouds at 6000 feet AGL
QC Flag:automated observation with no human augmentation
Text:K3I2 220715Z AUTO 00000KT 10SM SCT015 SCT060 20/20 A2971 RMK AO2 T02000195
Temperature: 20.0°C ( 68°F)
Dewpoint: 19.5°C ( 67°F) [RH = 97%]
Pressure (altimeter):29.71 inches Hg (1006.2 mb)
Winds:calm
Visibility:10 or more sm (16+ km)
Ceiling:at least 12,000 feet AGL
Clouds: scattered clouds at 1500 feet AGL, scattered clouds at 6000 feet AGL
QC Flag:automated observation with no human augmentation
Text:K3I2 220655Z AUTO 00000KT 10SM SCT010 OVC015 20/20 A2972 RMK AO2 T02010195
Temperature: 20.1°C ( 68°F)
Dewpoint: 19.5°C ( 67°F) [RH = 96%]
Pressure (altimeter):29.72 inches Hg (1006.5 mb)
Winds:calm
Visibility:10 or more sm (16+ km)
Ceiling:1500 feet AGL
Clouds: scattered clouds at 1000 feet AGL, overcast cloud deck at 1500 feet AGL
QC Flag:automated observation with no human augmentation
Text:K3I2 220635Z AUTO 00000KT 10SM OVC010 20/20 A2972 RMK AO2 T02000196
Temperature: 20.0°C ( 68°F)
Dewpoint: 19.6°C ( 67°F) [RH = 98%]
Pressure (altimeter):29.72 inches Hg (1006.5 mb)
Winds:calm
Visibility:10 or more sm (16+ km)
Ceiling:1000 feet AGL
Clouds: overcast cloud deck at 1000 feet AGL
QC Flag:automated observation with no human augmentation
Text:K3I2 220615Z AUTO 00000KT 10SM BKN010 BKN032 OVC039 20/20 A2973 RMK AO2 T02020196
Temperature: 20.2°C ( 68°F)
Dewpoint: 19.6°C ( 67°F) [RH = 96%]
Pressure (altimeter):29.73 inches Hg (1006.9 mb)
Winds:calm
Visibility:10 or more sm (16+ km)
Ceiling:1000 feet AGL
Clouds: broken clouds at 1000 feet AGL, broken clouds at 3200 feet AGL, overcast cloud deck at 3900 feet AGL
QC Flag:automated observation with no human augmentation
Text:K3I2 220555Z AUTO 00000KT 10SM SCT032 BKN039 OVC060 20/20 A2974 RMK AO2 6//// T01980195
Temperature: 19.8°C ( 68°F)
Dewpoint: 19.5°C ( 67°F) [RH = 98%]
Pressure (altimeter):29.74 inches Hg (1007.2 mb)
Winds:calm
Visibility:10 or more sm (16+ km)
Ceiling:3900 feet AGL
Clouds: scattered clouds at 3200 feet AGL, broken clouds at 3900 feet AGL, overcast cloud deck at 6000 feet AGL
QC Flag:automated observation with no human augmentation
Text:K3I2 220535Z AUTO 00000KT 10SM SCT032 BKN039 BKN060 20/19 A2974 RMK AO2 T01950193
Temperature: 19.5°C ( 67°F)
Dewpoint: 19.3°C ( 67°F) [RH = 99%]
Pressure (altimeter):29.74 inches Hg (1007.2 mb)
Winds:calm
Visibility:10 or more sm (16+ km)
Ceiling:3900 feet AGL
Clouds: scattered clouds at 3200 feet AGL, broken clouds at 3900 feet AGL, broken clouds at 6000 feet AGL
QC Flag:automated observation with no human augmentation
Text:K3I2 220515Z AUTO 00000KT 10SM BKN030 20/19 A2974 RMK AO2 T01950193
Temperature: 19.5°C ( 67°F)
Dewpoint: 19.3°C ( 67°F) [RH = 99%]
Pressure (altimeter):29.74 inches Hg (1007.2 mb)
Winds:calm
Visibility:10 or more sm (16+ km)
Ceiling:3000 feet AGL
Clouds: broken clouds at 3000 feet AGL
QC Flag:automated observation with no human augmentation
Text:K3I2 220458Z AUTO 00000KT 10SM SCT001 19/19 A2974 RMK AO2
Temperature: 19.0°C ( 66°F)
Dewpoint: 19.0°C ( 66°F) [RH = 100%]
Pressure (altimeter):29.74 inches Hg (1007.2 mb)
Winds:calm
Visibility:10 or more sm (16+ km)
Ceiling:at least 12,000 feet AGL
Clouds: scattered clouds at 100 feet AGL
QC Flag:automated observation with no human augmentation
Text:K3I2 220435Z AUTO 05003KT 2SM BR BKN001 OVC037 20/19 A2975 RMK AO2 T01950193
Temperature: 19.5°C ( 67°F)
Dewpoint: 19.3°C ( 67°F) [RH = 99%]
Pressure (altimeter):29.75 inches Hg (1007.5 mb)
Winds:from the NE (50 degrees) at 3 MPH (3 knots; 1.5 m/s)
Visibility: 2.00 sm ( 3.22 km)
Ceiling:100 feet AGL
Clouds: broken clouds at 100 feet AGL, overcast cloud deck at 3700 feet AGL
Weather:BR (mist)
QC Flag:automated observation with no human augmentation
Text:K3I2 220415Z AUTO 05003KT 10SM SCT035 BKN043 20/19 A2976 RMK AO2 T01950194
Temperature: 19.5°C ( 67°F)
Dewpoint: 19.4°C ( 67°F) [RH = 99%]
Pressure (altimeter):29.76 inches Hg (1007.9 mb)
Winds:from the NE (50 degrees) at 3 MPH (3 knots; 1.5 m/s)
Visibility:10 or more sm (16+ km)
Ceiling:4300 feet AGL
Clouds: scattered clouds at 3500 feet AGL, broken clouds at 4300 feet AGL
QC Flag:automated observation with no human augmentation
Text:K3I2 220350Z AUTO 00000KT 10SM CLR 19/19 A2977 RMK AO2 T01940192
Temperature: 19.4°C ( 67°F)
Dewpoint: 19.2°C ( 67°F) [RH = 99%]
Pressure (altimeter):29.77 inches Hg (1008.2 mb)
Winds:calm
Visibility:10 or more sm (16+ km)
Ceiling:at least 12,000 feet AGL
Clouds:sky clear below 12,000 feet AGL
QC Flag:automated observation with no human augmentation
Text:K3I2 220335Z AUTO 00000KT 10SM CLR 20/19 A2977 RMK AO2 T01950193
Temperature: 19.5°C ( 67°F)
Dewpoint: 19.3°C ( 67°F) [RH = 99%]
Pressure (altimeter):29.77 inches Hg (1008.2 mb)
Winds:calm
Visibility:10 or more sm (16+ km)
Ceiling:at least 12,000 feet AGL
Clouds:sky clear below 12,000 feet AGL
QC Flag:automated observation with no human augmentation
Text:K3I2 220315Z AUTO 00000KT 10SM CLR 20/19 A2976 RMK AO2 T01950192
Temperature: 19.5°C ( 67°F)
Dewpoint: 19.2°C ( 67°F) [RH = 98%]
Pressure (altimeter):29.76 inches Hg (1007.9 mb)
Winds:calm
Visibility:10 or more sm (16+ km)
Ceiling:at least 12,000 feet AGL
Clouds:sky clear below 12,000 feet AGL
QC Flag:automated observation with no human augmentation
Text:K3I2 220255Z AUTO 00000KT 10SM CLR 20/20 A2976 RMK AO2 T01980196
Temperature: 19.8°C ( 68°F)
Dewpoint: 19.6°C ( 67°F) [RH = 99%]
Pressure (altimeter):29.76 inches Hg (1007.9 mb)
Winds:calm
Visibility:10 or more sm (16+ km)
Ceiling:at least 12,000 feet AGL
Clouds:sky clear below 12,000 feet AGL
QC Flag:automated observation with no human augmentation
Text:K3I2 220235Z AUTO 00000KT 10SM CLR 20/20 A2976 RMK AO2 T02000197
Temperature: 20.0°C ( 68°F)
Dewpoint: 19.7°C ( 67°F) [RH = 98%]
Pressure (altimeter):29.76 inches Hg (1007.9 mb)
Winds:calm
Visibility:10 or more sm (16+ km)
Ceiling:at least 12,000 feet AGL
Clouds:sky clear below 12,000 feet AGL
QC Flag:automated observation with no human augmentation
Text:K3I2 220215Z AUTO 00000KT 10SM CLR 20/20 A2976 RMK AO2 T02020200
Temperature: 20.2°C ( 68°F)
Dewpoint: 20.0°C ( 68°F) [RH = 99%]
Pressure (altimeter):29.76 inches Hg (1007.9 mb)
Winds:calm
Visibility:10 or more sm (16+ km)
Ceiling:at least 12,000 feet AGL
Clouds:sky clear below 12,000 feet AGL
QC Flag:automated observation with no human augmentation
Text:K3I2 220155Z AUTO 00000KT 10SM CLR 21/20 A2976 RMK AO2 T02060203
Temperature: 20.6°C ( 69°F)
Dewpoint: 20.3°C ( 69°F) [RH = 98%]
Pressure (altimeter):29.76 inches Hg (1007.9 mb)
Winds:calm
Visibility:10 or more sm (16+ km)
Ceiling:at least 12,000 feet AGL
Clouds:sky clear below 12,000 feet AGL
QC Flag:automated observation with no human augmentation
Text:K3I2 220140Z AUTO 00000KT 10SM CLR 21/21 A2975 RMK AO2 T02100206
Temperature: 21.0°C ( 70°F)
Dewpoint: 20.6°C ( 69°F) [RH = 98%]
Pressure (altimeter):29.75 inches Hg (1007.5 mb)
Winds:calm
Visibility:10 or more sm (16+ km)
Ceiling:at least 12,000 feet AGL
Clouds:sky clear below 12,000 feet AGL
QC Flag:automated observation with no human augmentation
Text:K3I2 220115Z AUTO 00000KT 10SM SCT120 21/21 A2976 RMK AO2 T02120207
Temperature: 21.2°C ( 70°F)
Dewpoint: 20.7°C ( 69°F) [RH = 97%]
Pressure (altimeter):29.76 inches Hg (1007.9 mb)
Winds:calm
Visibility:10 or more sm (16+ km)
Ceiling:at least 12,000 feet AGL
Clouds: scattered clouds at 12000 feet AGL
QC Flag:automated observation with no human augmentation
Text:K3I2 220055Z AUTO 00000KT 10SM SCT120 22/21 A2976 RMK AO2 T02150210
Temperature: 21.5°C ( 71°F)
Dewpoint: 21.0°C ( 70°F) [RH = 97%]
Pressure (altimeter):29.76 inches Hg (1007.9 mb)
Winds:calm
Visibility:10 or more sm (16+ km)
Ceiling:at least 12,000 feet AGL
Clouds: scattered clouds at 12000 feet AGL
QC Flag:automated observation with no human augmentation
Text:K3I2 220035Z AUTO 00000KT 10SM SCT095 22/21 A2977 RMK AO2 T02200212
Temperature: 22.0°C ( 72°F)
Dewpoint: 21.2°C ( 70°F) [RH = 95%]
Pressure (altimeter):29.77 inches Hg (1008.2 mb)
Winds:calm
Visibility:10 or more sm (16+ km)
Ceiling:at least 12,000 feet AGL
Clouds: scattered clouds at 9500 feet AGL
QC Flag:automated observation with no human augmentation
Text:K3I2 220015Z AUTO 00000KT 10SM -DZ CLR 22/21 A2977 RMK AO2 T02190214
Temperature: 21.9°C ( 71°F)
Dewpoint: 21.4°C ( 71°F) [RH = 97%]
Pressure (altimeter):29.77 inches Hg (1008.2 mb)
Winds:calm
Visibility:10 or more sm (16+ km)
Ceiling:at least 12,000 feet AGL
Clouds:sky clear below 12,000 feet AGL
Weather:-DZ (light drizzle)
QC Flag:automated observation with no human augmentation
Text:K3I2 212338Z AUTO 00000KT 10SM -RA BKN004 BKN012 22/22 A2977 RMK AO2
Temperature: 22.0°C ( 72°F)
Dewpoint: 22.0°C ( 72°F) [RH = 100%]
Pressure (altimeter):29.77 inches Hg (1008.2 mb)
Winds:calm
Visibility:10 or more sm (16+ km)
Ceiling:400 feet AGL
Clouds: broken clouds at 400 feet AGL, broken clouds at 1200 feet AGL
Weather:-RA (light rain)
QC Flag:automated observation with no human augmentation
Text:K3I2 212315Z AUTO 10003KT 10SM -RA SCT004 SCT009 SCT049 23/19 A2977 RMK AO2 T02310193
Temperature: 23.1°C ( 74°F)
Dewpoint: 19.3°C ( 67°F) [RH = 79%]
Pressure (altimeter):29.77 inches Hg (1008.2 mb)
Winds:from the E (100 degrees) at 3 MPH (3 knots; 1.5 m/s)
Visibility:10 or more sm (16+ km)
Ceiling:at least 12,000 feet AGL
Clouds: scattered clouds at 400 feet AGL, scattered clouds at 900 feet AGL, scattered clouds at 4900 feet AGL
Weather:-RA (light rain)
QC Flag:automated observation with no human augmentation
Text:K3I2 212255Z AUTO 21007KT 10SM SCT070 24/19 A2977 RMK AO2 T02370190
Temperature: 23.7°C ( 75°F)
Dewpoint: 19.0°C ( 66°F) [RH = 75%]
Pressure (altimeter):29.77 inches Hg (1008.2 mb)
Winds:from the SSW (210 degrees) at 8 MPH (7 knots; 3.6 m/s)
Visibility:10 or more sm (16+ km)
Ceiling:at least 12,000 feet AGL
Clouds: scattered clouds at 7000 feet AGL
QC Flag:automated observation with no human augmentation
Text:K3I2 212235Z AUTO 21008KT 10SM SCT043 SCT050 25/20 A2976 RMK AO2 T02470195
Temperature: 24.7°C ( 76°F)
Dewpoint: 19.5°C ( 67°F) [RH = 73%]
Pressure (altimeter):29.76 inches Hg (1007.9 mb)
Winds:from the SSW (210 degrees) at 9 MPH (8 knots; 4.1 m/s)
Visibility:10 or more sm (16+ km)
Ceiling:at least 12,000 feet AGL
Clouds: scattered clouds at 4300 feet AGL, scattered clouds at 5000 feet AGL
QC Flag:automated observation with no human augmentation
Text:K3I2 212215Z AUTO 00000KT 10SM BKN041 OVC050 28/20 A2975 RMK AO2 T02750195
Temperature: 27.5°C ( 82°F)
Dewpoint: 19.5°C ( 67°F) [RH = 62%]
Pressure (altimeter):29.75 inches Hg (1007.5 mb)
Winds:calm
Visibility:10 or more sm (16+ km)
Ceiling:4100 feet AGL
Clouds: broken clouds at 4100 feet AGL, overcast cloud deck at 5000 feet AGL
QC Flag:automated observation with no human augmentation
Text:K3I2 212155Z AUTO 06004KT 10SM BKN041 29/19 A2975 RMK AO2 T02890191
Temperature: 28.9°C ( 84°F)
Dewpoint: 19.1°C ( 66°F) [RH = 56%]
Pressure (altimeter):29.75 inches Hg (1007.5 mb)
Winds:from the ENE (60 degrees) at 5 MPH (4 knots; 2.1 m/s)
Visibility:10 or more sm (16+ km)
Ceiling:4100 feet AGL
Clouds: broken clouds at 4100 feet AGL
QC Flag:automated observation with no human augmentation
Text:K3I2 212135Z AUTO 09004KT 10SM SCT045 31/20 A2974 RMK AO2 T03050201
Temperature: 30.5°C ( 87°F)
Dewpoint: 20.1°C ( 68°F) [RH = 54%]
Pressure (altimeter):29.74 inches Hg (1007.2 mb)
Winds:from the E (90 degrees) at 5 MPH (4 knots; 2.1 m/s)
Visibility:10 or more sm (16+ km)
Ceiling:at least 12,000 feet AGL
Clouds: scattered clouds at 4500 feet AGL
QC Flag:automated observation with no human augmentation
Text:K3I2 212115Z AUTO 06004KT 10SM SCT043 29/19 A2975 RMK AO2 T02930190
Temperature: 29.3°C ( 85°F)
Dewpoint: 19.0°C ( 66°F) [RH = 54%]
Pressure (altimeter):29.75 inches Hg (1007.5 mb)
Winds:from the ENE (60 degrees) at 5 MPH (4 knots; 2.1 m/s)
Visibility:10 or more sm (16+ km)
Ceiling:at least 12,000 feet AGL
Clouds: scattered clouds at 4300 feet AGL
QC Flag:automated observation with no human augmentation
Text:K3I2 212055Z AUTO 00000KT 10SM SCT041 29/19 A2975 RMK AO2 T02930187
Temperature: 29.3°C ( 85°F)
Dewpoint: 18.7°C ( 66°F) [RH = 53%]
Pressure (altimeter):29.75 inches Hg (1007.5 mb)
Winds:calm
Visibility:10 or more sm (16+ km)
Ceiling:at least 12,000 feet AGL
Clouds: scattered clouds at 4100 feet AGL
QC Flag:automated observation with no human augmentation
Text:K3I2 212035Z AUTO 10003KT 10SM SCT041 SCT050 29/19 A2975 RMK AO2 T02900188
Temperature: 29.0°C ( 84°F)
Dewpoint: 18.8°C ( 66°F) [RH = 54%]
Pressure (altimeter):29.75 inches Hg (1007.5 mb)
Winds:from the E (100 degrees) at 3 MPH (3 knots; 1.5 m/s)
Visibility:10 or more sm (16+ km)
Ceiling:at least 12,000 feet AGL
Clouds: scattered clouds at 4100 feet AGL, scattered clouds at 5000 feet AGL
QC Flag:automated observation with no human augmentation
Text:K3I2 212015Z AUTO 18004KT 10SM CLR 30/20 A2976 RMK AO2 T03020201
Temperature: 30.2°C ( 86°F)
Dewpoint: 20.1°C ( 68°F) [RH = 55%]
Pressure (altimeter):29.76 inches Hg (1007.9 mb)
Winds:from the S (180 degrees) at 5 MPH (4 knots; 2.1 m/s)
Visibility:10 or more sm (16+ km)
Ceiling:at least 12,000 feet AGL
Clouds:sky clear below 12,000 feet AGL
QC Flag:automated observation with no human augmentation
Text:K3I2 211955Z AUTO 22006KT 10SM CLR 30/20 A2976 RMK AO2 T02960197
Temperature: 29.6°C ( 85°F)
Dewpoint: 19.7°C ( 67°F) [RH = 55%]
Pressure (altimeter):29.76 inches Hg (1007.9 mb)
Winds:from the SW (220 degrees) at 7 MPH (6 knots; 3.1 m/s)
Visibility:10 or more sm (16+ km)
Ceiling:at least 12,000 feet AGL
Clouds:sky clear below 12,000 feet AGL
QC Flag:automated observation with no human augmentation
Text:K3I2 211935Z AUTO 00000KT 10SM CLR 29/20 A2977 RMK AO2 T02940199
Temperature: 29.4°C ( 85°F)
Dewpoint: 19.9°C ( 68°F) [RH = 57%]
Pressure (altimeter):29.77 inches Hg (1008.2 mb)
Winds:calm
Visibility:10 or more sm (16+ km)
Ceiling:at least 12,000 feet AGL
Clouds:sky clear below 12,000 feet AGL
QC Flag:automated observation with no human augmentation
Text:K3I2 211915Z AUTO 23007KT 200V270 10SM SCT033 29/20 A2978 RMK AO2 T02920204
Temperature: 29.2°C ( 85°F)
Dewpoint: 20.4°C ( 69°F) [RH = 59%]
Pressure (altimeter):29.78 inches Hg (1008.5 mb)
Winds:from the SW (230 degrees) at 8 MPH (7 knots; 3.6 m/s)
Visibility:10 or more sm (16+ km)
Ceiling:at least 12,000 feet AGL
Clouds: scattered clouds at 3300 feet AGL
QC Flag:automated observation with no human augmentation
Text:K3I2 211855Z AUTO 24004KT 10SM SCT034 SCT042 29/20 A2979 RMK AO2 T02870203
Temperature: 28.7°C ( 84°F)
Dewpoint: 20.3°C ( 69°F) [RH = 61%]
Pressure (altimeter):29.79 inches Hg (1008.9 mb)
Winds:from the WSW (240 degrees) at 5 MPH (4 knots; 2.1 m/s)
Visibility:10 or more sm (16+ km)
Ceiling:at least 12,000 feet AGL
Clouds: scattered clouds at 3400 feet AGL, scattered clouds at 4200 feet AGL
QC Flag:automated observation with no human augmentation
Text:K3I2 211835Z AUTO 22007KT 10SM SCT036 SCT042 27/20 A2980 RMK AO2 T02700197
Temperature: 27.0°C ( 81°F)
Dewpoint: 19.7°C ( 67°F) [RH = 64%]
Pressure (altimeter):29.80 inches Hg (1009.2 mb)
Winds:from the SW (220 degrees) at 8 MPH (7 knots; 3.6 m/s)
Visibility:10 or more sm (16+ km)
Ceiling:at least 12,000 feet AGL
Clouds: scattered clouds at 3600 feet AGL, scattered clouds at 4200 feet AGL
QC Flag:automated observation with no human augmentation
Text:K3I2 211815Z AUTO 18007KT 150V210 10SM SCT038 27/19 A2980 RMK AO2 T02720193
Temperature: 27.2°C ( 81°F)
Dewpoint: 19.3°C ( 67°F) [RH = 62%]
Pressure (altimeter):29.80 inches Hg (1009.2 mb)
Winds:from the S (180 degrees) at 8 MPH (7 knots; 3.6 m/s)
Visibility:10 or more sm (16+ km)
Ceiling:at least 12,000 feet AGL
Clouds: scattered clouds at 3800 feet AGL
QC Flag:automated observation with no human augmentation
Text:K3I2 211755Z AUTO 17004KT 10SM SCT040 27/19 A2980 RMK AO2 T02700185 10283 20186
Temperature: 27.0°C ( 81°F)
Dewpoint: 18.5°C ( 65°F) [RH = 60%]
Pressure (altimeter):29.80 inches Hg (1009.2 mb)
Winds:from the S (170 degrees) at 5 MPH (4 knots; 2.1 m/s)
Visibility:10 or more sm (16+ km)
Ceiling:at least 12,000 feet AGL
Clouds: scattered clouds at 4000 feet AGL
QC Flag:automated observation with no human augmentation
Text:K3I2 211735Z AUTO 22007KT 10SM SCT034 SCT040 28/19 A2981 RMK AO2 T02800194
Temperature: 28.0°C ( 82°F)
Dewpoint: 19.4°C ( 67°F) [RH = 60%]
Pressure (altimeter):29.81 inches Hg (1009.6 mb)
Winds:from the SW (220 degrees) at 8 MPH (7 knots; 3.6 m/s)
Visibility:10 or more sm (16+ km)
Ceiling:at least 12,000 feet AGL
Clouds: scattered clouds at 3400 feet AGL, scattered clouds at 4000 feet AGL
QC Flag:automated observation with no human augmentation
Text:K3I2 211715Z AUTO 18005KT 10SM SCT034 27/19 A2982 RMK AO2 T02650186
Temperature: 26.5°C ( 80°F)
Dewpoint: 18.6°C ( 65°F) [RH = 62%]
Pressure (altimeter):29.82 inches Hg (1009.9 mb)
Winds:from the S (180 degrees) at 6 MPH (5 knots; 2.6 m/s)
Visibility:10 or more sm (16+ km)
Ceiling:at least 12,000 feet AGL
Clouds: scattered clouds at 3400 feet AGL
QC Flag:automated observation with no human augmentation
Text:K3I2 211655Z AUTO 21007KT 10SM CLR 28/20 A2982 RMK AO2 T02810197
Temperature: 28.1°C ( 83°F)
Dewpoint: 19.7°C ( 67°F) [RH = 60%]
Pressure (altimeter):29.82 inches Hg (1009.9 mb)
Winds:from the SSW (210 degrees) at 8 MPH (7 knots; 3.6 m/s)
Visibility:10 or more sm (16+ km)
Ceiling:at least 12,000 feet AGL
Clouds:sky clear below 12,000 feet AGL
QC Flag:automated observation with no human augmentation
Text:K3I2 211635Z AUTO 20008KT 10SM CLR 27/19 A2983 RMK AO2 T02730189
Temperature: 27.3°C ( 81°F)
Dewpoint: 18.9°C ( 66°F) [RH = 60%]
Pressure (altimeter):29.83 inches Hg (1010.2 mb)
Winds:from the SSW (200 degrees) at 9 MPH (8 knots; 4.1 m/s)
Visibility:10 or more sm (16+ km)
Ceiling:at least 12,000 feet AGL
Clouds:sky clear below 12,000 feet AGL
QC Flag:automated observation with no human augmentation
Text:K3I2 211615Z AUTO 21004KT 10SM CLR 26/18 A2983 RMK AO2 T02640183
Temperature: 26.4°C ( 80°F)
Dewpoint: 18.3°C ( 65°F) [RH = 61%]
Pressure (altimeter):29.83 inches Hg (1010.2 mb)
Winds:from the SSW (210 degrees) at 5 MPH (4 knots; 2.1 m/s)
Visibility:10 or more sm (16+ km)
Ceiling:at least 12,000 feet AGL
Clouds:sky clear below 12,000 feet AGL
QC Flag:automated observation with no human augmentation
Text:K3I2 211555Z AUTO 19007KT 10SM CLR 26/17 A2984 RMK AO2 T02580174
Temperature: 25.8°C ( 78°F)
Dewpoint: 17.4°C ( 63°F) [RH = 60%]
Pressure (altimeter):29.84 inches Hg (1010.6 mb)
Winds:from the S (190 degrees) at 8 MPH (7 knots; 3.6 m/s)
Visibility:10 or more sm (16+ km)
Ceiling:at least 12,000 feet AGL
Clouds:sky clear below 12,000 feet AGL
QC Flag:automated observation with no human augmentation
Text:K3I2 211535Z AUTO 20006KT 10SM CLR 26/18 A2984 RMK AO2 T02640183
Temperature: 26.4°C ( 80°F)
Dewpoint: 18.3°C ( 65°F) [RH = 61%]
Pressure (altimeter):29.84 inches Hg (1010.6 mb)
Winds:from the SSW (200 degrees) at 7 MPH (6 knots; 3.1 m/s)
Visibility:10 or more sm (16+ km)
Ceiling:at least 12,000 feet AGL
Clouds:sky clear below 12,000 feet AGL
QC Flag:automated observation with no human augmentation
Text:K3I2 211515Z AUTO 17007KT 10SM CLR 26/19 A2984 RMK AO2 T02610190
Temperature: 26.1°C ( 79°F)
Dewpoint: 19.0°C ( 66°F) [RH = 65%]
Pressure (altimeter):29.84 inches Hg (1010.6 mb)
Winds:from the S (170 degrees) at 8 MPH (7 knots; 3.6 m/s)
Visibility:10 or more sm (16+ km)
Ceiling:at least 12,000 feet AGL
Clouds:sky clear below 12,000 feet AGL
QC Flag:automated observation with no human augmentation
Text:K3I2 211455Z AUTO 18005KT 10SM CLR 25/19 A2985 RMK AO2 T02530186
Temperature: 25.3°C ( 78°F)
Dewpoint: 18.6°C ( 65°F) [RH = 66%]
Pressure (altimeter):29.85 inches Hg (1010.9 mb)
Winds:from the S (180 degrees) at 6 MPH (5 knots; 2.6 m/s)
Visibility:10 or more sm (16+ km)
Ceiling:at least 12,000 feet AGL
Clouds:sky clear below 12,000 feet AGL
QC Flag:automated observation with no human augmentation
Text:K3I2 211435Z AUTO 21005KT 10SM CLR 24/19 A2985 RMK AO2 T02420192
Temperature: 24.2°C ( 76°F)
Dewpoint: 19.2°C ( 67°F) [RH = 74%]
Pressure (altimeter):29.85 inches Hg (1010.9 mb)
Winds:from the SSW (210 degrees) at 6 MPH (5 knots; 2.6 m/s)
Visibility:10 or more sm (16+ km)
Ceiling:at least 12,000 feet AGL
Clouds:sky clear below 12,000 feet AGL
QC Flag:automated observation with no human augmentation
Text:K3I2 211415Z AUTO 00000KT 10SM CLR 23/18 A2986 RMK AO2 T02250184
Temperature: 22.5°C ( 72°F)
Dewpoint: 18.4°C ( 65°F) [RH = 78%]
Pressure (altimeter):29.86 inches Hg (1011.3 mb)
Winds:calm
Visibility:10 or more sm (16+ km)
Ceiling:at least 12,000 feet AGL
Clouds:sky clear below 12,000 feet AGL
QC Flag:automated observation with no human augmentation
Text:K3I2 211355Z AUTO 17004KT 10SM CLR 23/18 A2985 RMK AO2 T02270181
Temperature: 22.7°C ( 73°F)
Dewpoint: 18.1°C ( 65°F) [RH = 75%]
Pressure (altimeter):29.85 inches Hg (1010.9 mb)
Winds:from the S (170 degrees) at 5 MPH (4 knots; 2.1 m/s)
Visibility:10 or more sm (16+ km)
Ceiling:at least 12,000 feet AGL
Clouds:sky clear below 12,000 feet AGL
QC Flag:automated observation with no human augmentation
Text:K3I2 211335Z AUTO 18003KT 10SM CLR 23/19 A2986 RMK AO2 T02250189
Temperature: 22.5°C ( 72°F)
Dewpoint: 18.9°C ( 66°F) [RH = 80%]
Pressure (altimeter):29.86 inches Hg (1011.3 mb)
Winds:from the S (180 degrees) at 3 MPH (3 knots; 1.5 m/s)
Visibility:10 or more sm (16+ km)
Ceiling:at least 12,000 feet AGL
Clouds:sky clear below 12,000 feet AGL
QC Flag:automated observation with no human augmentation
Text:K3I2 211315Z AUTO 00000KT 10SM CLR 21/19 A2986 RMK AO2 T02100185
Temperature: 21.0°C ( 70°F)
Dewpoint: 18.5°C ( 65°F) [RH = 86%]
Pressure (altimeter):29.86 inches Hg (1011.3 mb)
Winds:calm
Visibility:10 or more sm (16+ km)
Ceiling:at least 12,000 feet AGL
Clouds:sky clear below 12,000 feet AGL
QC Flag:automated observation with no human augmentation
Text:K3I2 211255Z AUTO 00000KT 10SM CLR 20/18 A2986 RMK AO2 T01950182
Temperature: 19.5°C ( 67°F)
Dewpoint: 18.2°C ( 65°F) [RH = 92%]
Pressure (altimeter):29.86 inches Hg (1011.3 mb)
Winds:calm
Visibility:10 or more sm (16+ km)
Ceiling:at least 12,000 feet AGL
Clouds:sky clear below 12,000 feet AGL
QC Flag:automated observation with no human augmentation
Text:K3I2 211235Z AUTO 00000KT 10SM SCT060 19/18 A2985 RMK AO2 T01910183
Temperature: 19.1°C ( 66°F)
Dewpoint: 18.3°C ( 65°F) [RH = 95%]
Pressure (altimeter):29.85 inches Hg (1010.9 mb)
Winds:calm
Visibility:10 or more sm (16+ km)
Ceiling:at least 12,000 feet AGL
Clouds: scattered clouds at 6000 feet AGL
QC Flag:automated observation with no human augmentation
Text:K3I2 211215Z AUTO 00000KT 10SM CLR 19/18 A2985 RMK AO2 T01880181
Temperature: 18.8°C ( 66°F)
Dewpoint: 18.1°C ( 65°F) [RH = 96%]
Pressure (altimeter):29.85 inches Hg (1010.9 mb)
Winds:calm
Visibility:10 or more sm (16+ km)
Ceiling:at least 12,000 feet AGL
Clouds:sky clear below 12,000 feet AGL
QC Flag:automated observation with no human augmentation
Text:K3I2 211155Z AUTO 00000KT 10SM CLR 19/18 A2985 RMK AO2 6//// 7//// T01860180
Temperature: 18.6°C ( 65°F)
Dewpoint: 18.0°C ( 64°F) [RH = 96%]
Pressure (altimeter):29.85 inches Hg (1010.9 mb)
Winds:calm
Visibility:10 or more sm (16+ km)
Ceiling:at least 12,000 feet AGL
Clouds:sky clear below 12,000 feet AGL
QC Flag:automated observation with no human augmentation
Text:K3I2 211135Z AUTO 00000KT 10SM CLR 19/18 A2984 RMK AO2 T01850180
Temperature: 18.5°C ( 65°F)
Dewpoint: 18.0°C ( 64°F) [RH = 97%]
Pressure (altimeter):29.84 inches Hg (1010.6 mb)
Winds:calm
Visibility:10 or more sm (16+ km)
Ceiling:at least 12,000 feet AGL
Clouds:sky clear below 12,000 feet AGL
QC Flag:automated observation with no human augmentation
Text:K3I2 211115Z AUTO 00000KT 10SM CLR 18/18 A2984 RMK AO2 T01830180
Temperature: 18.3°C ( 65°F)
Dewpoint: 18.0°C ( 64°F) [RH = 98%]
Pressure (altimeter):29.84 inches Hg (1010.6 mb)
Winds:calm
Visibility:10 or more sm (16+ km)
Ceiling:at least 12,000 feet AGL
Clouds:sky clear below 12,000 feet AGL
QC Flag:automated observation with no human augmentation
Text:K3I2 211055Z AUTO 07003KT 10SM CLR 18/18 A2983 RMK AO2 T01830180
Temperature: 18.3°C ( 65°F)
Dewpoint: 18.0°C ( 64°F) [RH = 98%]
Pressure (altimeter):29.83 inches Hg (1010.2 mb)
Winds:from the ENE (70 degrees) at 3 MPH (3 knots; 1.5 m/s)
Visibility:10 or more sm (16+ km)
Ceiling:at least 12,000 feet AGL
Clouds:sky clear below 12,000 feet AGL
QC Flag:automated observation with no human augmentation
Text:K3I2 211035Z AUTO 06003KT 10SM CLR 18/18 A2983 RMK AO2 T01830180
Temperature: 18.3°C ( 65°F)
Dewpoint: 18.0°C ( 64°F) [RH = 98%]
Pressure (altimeter):29.83 inches Hg (1010.2 mb)
Winds:from the ENE (60 degrees) at 3 MPH (3 knots; 1.5 m/s)
Visibility:10 or more sm (16+ km)
Ceiling:at least 12,000 feet AGL
Clouds:sky clear below 12,000 feet AGL
QC Flag:automated observation with no human augmentation
Text:K3I2 211019Z AUTO 00000KT 10SM CLR 18/18 A2983 RMK AO2
Temperature: 18.0°C ( 64°F)
Dewpoint: 18.0°C ( 64°F) [RH = 100%]
Pressure (altimeter):29.83 inches Hg (1010.2 mb)
Winds:calm
Visibility:10 or more sm (16+ km)
Ceiling:at least 12,000 feet AGL
Clouds:sky clear below 12,000 feet AGL
QC Flag:automated observation with no human augmentation
Text:K3I2 210938Z AUTO 06003KT 10SM CLR 18/18 A2983 RMK AO2
Temperature: 18.0°C ( 64°F)
Dewpoint: 18.0°C ( 64°F) [RH = 100%]
Pressure (altimeter):29.83 inches Hg (1010.2 mb)
Winds:from the ENE (60 degrees) at 3 MPH (3 knots; 1.5 m/s)
Visibility:10 or more sm (16+ km)
Ceiling:at least 12,000 feet AGL
Clouds:sky clear below 12,000 feet AGL
QC Flag:automated observation with no human augmentation
Text:K3I2 210919Z AUTO 06003KT 10SM CLR 18/18 A2982 RMK AO2
Temperature: 18.0°C ( 64°F)
Dewpoint: 18.0°C ( 64°F) [RH = 100%]
Pressure (altimeter):29.82 inches Hg (1009.9 mb)
Winds:from the ENE (60 degrees) at 3 MPH (3 knots; 1.5 m/s)
Visibility:10 or more sm (16+ km)
Ceiling:at least 12,000 feet AGL
Clouds:sky clear below 12,000 feet AGL
QC Flag:automated observation with no human augmentation